sensor_id;sensor_type;location;lat;lon;timestamp;pressure;altitude;pressure_sealevel;temperature;humidity
62150;BME280;48134;53.586;10.610;2022-09-17T00:01:35;99676.66;;;9.90;100.00
62150;BME280;48134;53.586;10.610;2022-09-17T00:04:10;99683.41;;;9.93;100.00
62150;BME280;48134;53.586;10.610;2022-09-17T00:06:38;99680.59;;;9.98;100.00
62150;BME280;48134;53.586;10.610;2022-09-17T00:09:06;99676.47;;;10.00;100.00
62150;BME280;48134;53.586;10.610;2022-09-17T00:11:40;99683.22;;;10.03;100.00
62150;BME280;48134;53.586;10.610;2022-09-17T00:14:14;99682.41;;;10.02;100.00
62150;BME280;48134;53.586;10.610;2022-09-17T00:16:48;99694.50;;;10.10;100.00
62150;BME280;48134;53.586;10.610;2022-09-17T00:19:22;99684.66;;;10.14;100.00
62150;BME280;48134;53.586;10.610;2022-09-17T00:21:55;99692.19;;;10.17;100.00
62150;BME280;48134;53.586;10.610;2022-09-17T00:24:28;99696.22;;;10.20;100.00
62150;BME280;48134;53.586;10.610;2022-09-17T00:26:56;99695.44;;;10.19;100.00
62150;BME280;48134;53.586;10.610;2022-09-17T00:29:29;99694.50;;;10.24;100.00
62150;BME280;48134;53.586;10.610;2022-09-17T00:32:02;99689.06;;;10.24;100.00
62150;BME280;48134;53.586;10.610;2022-09-17T00:34:36;99699.88;;;10.29;100.00
62150;BME280;48134;53.586;10.610;2022-09-17T00:37:04;99691.19;;;10.27;100.00
62150;BME280;48134;53.586;10.610;2022-09-17T00:39:31;99692.94;;;10.37;100.00
62150;BME280;48134;53.586;10.610;2022-09-17T00:42:04;99696.97;;;10.40;100.00
62150;BME280;48134;53.586;10.610;2022-09-17T00:44:45;99695.06;;;10.40;100.00
62150;BME280;48134;53.586;10.610;2022-09-17T00:47:15;99693.13;;;10.41;100.00
62150;BME280;48134;53.586;10.610;2022-09-17T00:49:45;99693.84;;;10.46;100.00
62150;BME280;48134;53.586;10.610;2022-09-17T00:52:14;99697.66;;;10.45;100.00
62150;BME280;48134;53.586;10.610;2022-09-17T00:54:43;99698.47;;;10.46;100.00
62150;BME280;48134;53.586;10.610;2022-09-17T00:57:17;99695.66;;;10.51;100.00
62150;BME280;48134;53.586;10.610;2022-09-17T00:59:45;99706.25;;;10.52;100.00
62150;BME280;48134;53.586;10.610;2022-09-17T01:02:13;99696.66;;;10.55;100.00
62150;BME280;48134;53.586;10.610;2022-09-17T01:04:48;99703.53;;;10.52;100.00
62150;BME280;48134;53.586;10.610;2022-09-17T01:07:34;99701.28;;;10.54;100.00
62150;BME280;48134;53.586;10.610;2022-09-17T01:10:15;99704.22;;;10.58;100.00
62150;BME280;48134;53.586;10.610;2022-09-17T01:12:50;99704.00;;;10.54;100.00
62150;BME280;48134;53.586;10.610;2022-09-17T01:15:26;99706.03;;;10.49;100.00
62150;BME280;48134;53.586;10.610;2022-09-17T01:18:00;99709.97;;;10.57;100.00
62150;BME280;48134;53.586;10.610;2022-09-17T01:20:44;99706.41;;;10.56;100.00
62150;BME280;48134;53.586;10.610;2022-09-17T01:23:26;99702.50;;;10.62;100.00
62150;BME280;48134;53.586;10.610;2022-09-17T01:26:01;99708.66;;;10.54;100.00
62150;BME280;48134;53.586;10.610;2022-09-17T01:28:34;99717.44;;;10.51;100.00
62150;BME280;48134;53.586;10.610;2022-09-17T01:31:19;99708.44;;;10.50;100.00
62150;BME280;48134;53.586;10.610;2022-09-17T01:33:57;99709.97;;;10.57;100.00
62150;BME280;48134;53.586;10.610;2022-09-17T01:36:35;99710.06;;;10.51;100.00
62150;BME280;48134;53.586;10.610;2022-09-17T01:39:08;99710.06;;;10.51;100.00
62150;BME280;48134;53.586;10.610;2022-09-17T01:41:45;99714.19;;;10.49;100.00
62150;BME280;48134;53.586;10.610;2022-09-17T01:44:23;99709.97;;;10.43;100.00
62150;BME280;48134;53.586;10.610;2022-09-17T01:46:55;99715.69;;;10.41;100.00
62150;BME280;48134;53.586;10.610;2022-09-17T01:49:24;99718.41;;;10.41;100.00
62150;BME280;48134;53.586;10.610;2022-09-17T01:51:57;99717.19;;;10.33;100.00
62150;BME280;48134;53.586;10.610;2022-09-17T01:54:32;99715.19;;;10.39;100.00
62150;BME280;48134;53.586;10.610;2022-09-17T01:57:07;99718.53;;;10.36;100.00
62150;BME280;48134;53.586;10.610;2022-09-17T01:59:36;99717.97;;;10.34;100.00
62150;BME280;48134;53.586;10.610;2022-09-17T02:02:14;99726.16;;;10.34;100.00
62150;BME280;48134;53.586;10.610;2022-09-17T02:04:51;99721.81;;;10.33;100.00
62150;BME280;48134;53.586;10.610;2022-09-17T02:07:26;99725.97;;;10.30;100.00
62150;BME280;48134;53.586;10.610;2022-09-17T02:10:01;99733.81;;;10.32;100.00
62150;BME280;48134;53.586;10.610;2022-09-17T02:12:37;99735.22;;;10.29;100.00
62150;BME280;48134;53.586;10.610;2022-09-17T02:15:08;99723.50;;;10.29;100.00
62150;BME280;48134;53.586;10.610;2022-09-17T02:17:43;99729.16;;;10.32;100.00
62150;BME280;48134;53.586;10.610;2022-09-17T02:20:13;99730.78;;;10.33;100.00
62150;BME280;48134;53.586;10.610;2022-09-17T02:22:43;99733.44;;;10.38;100.00
62150;BME280;48134;53.586;10.610;2022-09-17T02:25:21;99727.25;;;10.33;100.00
62150;BME280;48134;53.586;10.610;2022-09-17T02:27:59;99724.13;;;10.26;100.00
62150;BME280;48134;53.586;10.610;2022-09-17T02:30:33;99728.69;;;10.30;100.00
62150;BME280;48134;53.586;10.610;2022-09-17T02:33:03;99719.59;;;10.21;100.00
62150;BME280;48134;53.586;10.610;2022-09-17T02:35:34;99725.81;;;10.21;100.00
62150;BME280;48134;53.586;10.610;2022-09-17T02:38:09;99727.84;;;10.16;100.00
62150;BME280;48134;53.586;10.610;2022-09-17T02:40:38;99721.09;;;10.13;100.00
62150;BME280;48134;53.586;10.610;2022-09-17T02:43:12;99719.19;;;10.14;100.00
62150;BME280;48134;53.586;10.610;2022-09-17T02:45:47;99728.44;;;10.13;100.00
62150;BME280;48134;53.586;10.610;2022-09-17T02:48:39;99721.69;;;10.10;100.00
62150;BME280;48134;53.586;10.610;2022-09-17T02:51:16;99718.97;;;10.10;100.00
62150;BME280;48134;53.586;10.610;2022-09-17T02:53:48;99718.47;;;10.08;100.00
62150;BME280;48134;53.586;10.610;2022-09-17T02:56:28;99724.63;;;10.00;100.00
62150;BME280;48134;53.586;10.610;2022-09-17T02:59:08;99728.91;;;10.01;100.00
62150;BME280;48134;53.586;10.610;2022-09-17T03:01:44;99731.63;;;10.01;100.00
62150;BME280;48134;53.586;10.610;2022-09-17T03:04:19;99733.66;;;9.95;100.00
62150;BME280;48134;53.586;10.610;2022-09-17T03:06:54;99732.03;;;9.94;100.00
62150;BME280;48134;53.586;10.610;2022-09-17T03:09:22;99732.03;;;9.94;100.00
62150;BME280;48134;53.586;10.610;2022-09-17T03:11:54;99734.56;;;9.91;100.00
62150;BME280;48134;53.586;10.610;2022-09-17T03:14:27;99731.84;;;9.91;100.00
62150;BME280;48134;53.586;10.610;2022-09-17T03:16:55;99729.91;;;9.91;100.00
62150;BME280;48134;53.586;10.610;2022-09-17T03:19:24;99725.88;;;9.88;100.00
62150;BME280;48134;53.586;10.610;2022-09-17T03:21:58;99718.03;;;9.87;100.00
62150;BME280;48134;53.586;10.610;2022-09-17T03:24:31;99710.78;;;9.82;100.00
62150;BME280;48134;53.586;10.610;2022-09-17T03:26:58;99716.28;;;9.77;100.00
62150;BME280;48134;53.586;10.610;2022-09-17T03:29:31;99724.13;;;9.79;100.00
62150;BME280;48134;53.586;10.610;2022-09-17T03:32:04;99719.31;;;9.76;100.00
62150;BME280;48134;53.586;10.610;2022-09-17T03:34:38;99727.75;;;9.74;100.00
62150;BME280;48134;53.586;10.610;2022-09-17T03:37:11;99726.81;;;9.65;100.00
62150;BME280;48134;53.586;10.610;2022-09-17T03:39:39;99732.56;;;9.63;100.00
62150;BME280;48134;53.586;10.610;2022-09-17T03:42:07;99725.50;;;9.62;100.00
62150;BME280;48134;53.586;10.610;2022-09-17T03:44:40;99729.13;;;9.58;100.00
62150;BME280;48134;53.586;10.610;2022-09-17T03:47:13;99734.19;;;9.64;100.00
62150;BME280;48134;53.586;10.610;2022-09-17T03:49:48;99731.75;;;9.63;100.00
62150;BME280;48134;53.586;10.610;2022-09-17T03:52:22;99729.16;;;9.72;100.00
62150;BME280;48134;53.586;10.610;2022-09-17T03:54:50;99735.00;;;9.79;100.00
62150;BME280;48134;53.586;10.610;2022-09-17T03:57:18;99733.41;;;9.78;100.00
62150;BME280;48134;53.586;10.610;2022-09-17T03:59:51;99741.47;;;9.83;100.00
62150;BME280;48134;53.586;10.610;2022-09-17T04:02:24;99734.72;;;9.80;100.00
62150;BME280;48134;53.586;10.610;2022-09-17T04:04:58;99741.66;;;9.73;100.00
62150;BME280;48134;53.586;10.610;2022-09-17T04:07:30;99738.09;;;9.72;100.00
62150;BME280;48134;53.586;10.610;2022-09-17T04:10:04;99735.91;;;9.74;100.00
62150;BME280;48134;53.586;10.610;2022-09-17T04:12:36;99736.22;;;9.73;100.00
62150;BME280;48134;53.586;10.610;2022-09-17T04:15:09;99733.91;;;9.80;100.00
62150;BME280;48134;53.586;10.610;2022-09-17T04:17:42;99745.25;;;9.68;100.00
62150;BME280;48134;53.586;10.610;2022-09-17T04:20:12;99740.31;;;9.70;100.00
62150;BME280;48134;53.586;10.610;2022-09-17T04:22:44;99741.22;;;9.65;100.00
62150;BME280;48134;53.586;10.610;2022-09-17T04:25:17;99750.47;;;9.64;100.00
62150;BME280;48134;53.586;10.610;2022-09-17T04:27:50;99748.25;;;9.66;100.00
62150;BME280;48134;53.586;10.610;2022-09-17T04:30:23;99750.97;;;9.66;100.00
62150;BME280;48134;53.586;10.610;2022-09-17T04:32:51;99754.50;;;9.67;100.00
62150;BME280;48134;53.586;10.610;2022-09-17T04:35:25;99761.47;;;9.73;100.00
62150;BME280;48134;53.586;10.610;2022-09-17T04:37:57;99765.19;;;9.77;100.00
62150;BME280;48134;53.586;10.610;2022-09-17T04:40:26;99765.81;;;9.74;100.00
62150;BME280;48134;53.586;10.610;2022-09-17T04:42:54;99769.00;;;9.76;100.00
62150;BME280;48134;53.586;10.610;2022-09-17T04:45:27;99765.13;;;9.82;100.00
62150;BME280;48134;53.586;10.610;2022-09-17T04:48:01;99772.47;;;9.82;100.00
62150;BME280;48134;53.586;10.610;2022-09-17T04:50:35;99775.69;;;9.84;100.00
62150;BME280;48134;53.586;10.610;2022-09-17T04:53:08;99782.03;;;9.79;100.00
62150;BME280;48134;53.586;10.610;2022-09-17T04:55:36;99779.22;;;9.84;100.00
62150;BME280;48134;53.586;10.610;2022-09-17T04:58:09;99776.91;;;9.78;100.00
62150;BME280;48134;53.586;10.610;2022-09-17T05:00:37;99777.69;;;9.78;100.00
62150;BME280;48134;53.586;10.610;2022-09-17T05:03:08;99789.34;;;9.79;100.00
62150;BME280;48134;53.586;10.610;2022-09-17T05:05:42;99781.81;;;9.76;100.00
62150;BME280;48134;53.586;10.610;2022-09-17T05:08:10;99786.44;;;9.75;100.00
62150;BME280;48134;53.586;10.610;2022-09-17T05:10:43;99784.03;;;9.74;100.00
62150;BME280;48134;53.586;10.610;2022-09-17T05:13:10;99780.78;;;9.72;100.00
62150;BME280;48134;53.586;10.610;2022-09-17T05:15:43;99780.56;;;9.68;100.00
62150;BME280;48134;53.586;10.610;2022-09-17T05:18:16;99783.78;;;9.70;100.00
62150;BME280;48134;53.586;10.610;2022-09-17T05:20:50;99785.19;;;9.67;100.00
62150;BME280;48134;53.586;10.610;2022-09-17T05:23:23;99779.97;;;9.71;100.00
62150;BME280;48134;53.586;10.610;2022-09-17T05:25:56;99779.75;;;9.67;100.00
62150;BME280;48134;53.586;10.610;2022-09-17T05:28:29;99780.06;;;9.66;100.00
62150;BME280;48134;53.586;10.610;2022-09-17T05:31:02;99780.28;;;9.69;100.00
62150;BME280;48134;53.586;10.610;2022-09-17T05:33:30;99779.75;;;9.67;100.00
62150;BME280;48134;53.586;10.610;2022-09-17T05:36:04;99788.13;;;9.71;100.00
62150;BME280;48134;53.586;10.610;2022-09-17T05:38:32;99776.75;;;9.69;100.00
62150;BME280;48134;53.586;10.610;2022-09-17T05:41:02;99785.13;;;9.73;100.00
62150;BME280;48134;53.586;10.610;2022-09-17T05:43:30;99794.06;;;9.73;100.00
62150;BME280;48134;53.586;10.610;2022-09-17T05:46:03;99796.41;;;9.80;100.00
62150;BME280;48134;53.586;10.610;2022-09-17T05:48:36;99800.03;;;9.75;100.00
62150;BME280;48134;53.586;10.610;2022-09-17T05:51:10;99798.22;;;9.84;100.00
62150;BME280;48134;53.586;10.610;2022-09-17T05:53:43;99815.34;;;9.85;100.00
62150;BME280;48134;53.586;10.610;2022-09-17T05:56:11;99819.97;;;9.84;100.00
62150;BME280;48134;53.586;10.610;2022-09-17T05:58:44;99813.84;;;9.93;100.00
62150;BME280;48134;53.586;10.610;2022-09-17T06:01:17;99821.44;;;9.96;100.00
62150;BME280;48134;53.586;10.610;2022-09-17T06:03:44;99816.38;;;9.89;100.00
62150;BME280;48134;53.586;10.610;2022-09-17T06:06:19;99819.81;;;9.95;100.00
62150;BME280;48134;53.586;10.610;2022-09-17T06:08:51;99827.00;;;10.04;100.00
62150;BME280;48134;53.586;10.610;2022-09-17T06:11:24;99819.50;;;10.15;100.00
62150;BME280;48134;53.586;10.610;2022-09-17T06:13:52;99829.25;;;10.16;100.00
62150;BME280;48134;53.586;10.610;2022-09-17T06:16:25;99825.63;;;10.21;100.00
62150;BME280;48134;53.586;10.610;2022-09-17T06:18:53;99826.97;;;10.24;100.00
62150;BME280;48134;53.586;10.610;2022-09-17T06:21:22;99829.50;;;10.34;100.00
62150;BME280;48134;53.586;10.610;2022-09-17T06:23:55;99837.63;;;10.20;100.00
62150;BME280;48134;53.586;10.610;2022-09-17T06:26:23;99839.66;;;10.28;100.00
62150;BME280;48134;53.586;10.610;2022-09-17T06:28:54;99838.09;;;10.41;100.00
62150;BME280;48134;53.586;10.610;2022-09-17T06:31:27;99836.13;;;10.47;100.00
62150;BME280;48134;53.586;10.610;2022-09-17T06:33:55;99843.75;;;10.45;100.00
62150;BME280;48134;53.586;10.610;2022-09-17T06:36:24;99831.25;;;10.44;100.00
62150;BME280;48134;53.586;10.610;2022-09-17T06:38:52;99838.31;;;10.59;100.00
62150;BME280;48134;53.586;10.610;2022-09-17T06:41:25;99836.72;;;10.71;100.00
62150;BME280;48134;53.586;10.610;2022-09-17T06:43:57;99845.91;;;10.76;100.00
62150;BME280;48134;53.586;10.610;2022-09-17T06:46:25;99849.53;;;10.71;100.00
62150;BME280;48134;53.586;10.610;2022-09-17T06:48:58;99847.91;;;10.70;100.00
62150;BME280;48134;53.586;10.610;2022-09-17T06:51:32;99851.03;;;10.63;100.00
62150;BME280;48134;53.586;10.610;2022-09-17T06:54:00;99852.56;;;10.69;100.00
62150;BME280;48134;53.586;10.610;2022-09-17T06:56:33;99852.78;;;10.73;100.00
62150;BME280;48134;53.586;10.610;2022-09-17T06:59:01;99854.19;;;10.84;100.00
62150;BME280;48134;53.586;10.610;2022-09-17T07:01:34;99854.88;;;10.76;100.00
62150;BME280;48134;53.586;10.610;2022-09-17T07:04:03;99857.22;;;10.83;100.00
62150;BME280;48134;53.586;10.610;2022-09-17T07:06:38;99859.50;;;10.89;100.00
62150;BME280;48134;53.586;10.610;2022-09-17T07:09:06;99869.00;;;10.92;100.00
62150;BME280;48134;53.586;10.610;2022-09-17T07:11:40;99867.97;;;11.02;100.00
62150;BME280;48134;53.586;10.610;2022-09-17T07:14:13;99867.47;;;11.14;100.00
62150;BME280;48134;53.586;10.610;2022-09-17T07:16:46;99859.81;;;11.02;100.00
62150;BME280;48134;53.586;10.610;2022-09-17T07:19:18;99876.25;;;11.11;100.00
62150;BME280;48134;53.586;10.610;2022-09-17T07:21:48;99856.38;;;11.24;100.00
62150;BME280;48134;53.586;10.610;2022-09-17T07:24:16;99859.72;;;11.21;100.00
62150;BME280;48134;53.586;10.610;2022-09-17T07:26:44;99854.38;;;11.30;100.00
62150;BME280;48134;53.586;10.610;2022-09-17T07:29:11;99850.91;;;11.52;100.00
62150;BME280;48134;53.586;10.610;2022-09-17T07:31:44;99853.75;;;11.33;100.00
62150;BME280;48134;53.586;10.610;2022-09-17T07:34:17;99853.22;;;11.31;100.00
62150;BME280;48134;53.586;10.610;2022-09-17T07:36:51;99855.06;;;11.35;100.00
62150;BME280;48134;53.586;10.610;2022-09-17T07:39:31;99856.38;;;11.38;100.00
62150;BME280;48134;53.586;10.610;2022-09-17T07:41:59;99861.63;;;11.34;100.00
62150;BME280;48134;53.586;10.610;2022-09-17T07:44:34;99860.31;;;11.32;100.00
62150;BME280;48134;53.586;10.610;2022-09-17T07:47:02;99839.03;;;11.34;100.00
62150;BME280;48134;53.586;10.610;2022-09-17T07:49:36;99855.56;;;11.37;100.00
62150;BME280;48134;53.586;10.610;2022-09-17T07:52:05;99857.59;;;11.32;100.00
62150;BME280;48134;53.586;10.610;2022-09-17T07:54:38;99853.22;;;11.31;100.00
62150;BME280;48134;53.586;10.610;2022-09-17T07:57:06;99862.41;;;11.35;100.00
62150;BME280;48134;53.586;10.610;2022-09-17T07:59:39;99860.63;;;11.30;100.00
62150;BME280;48134;53.586;10.610;2022-09-17T08:02:08;99868.88;;;11.25;100.00
62150;BME280;48134;53.586;10.610;2022-09-17T08:04:41;99849.63;;;11.21;100.00
62150;BME280;48134;53.586;10.610;2022-09-17T08:07:16;99860.63;;;11.16;100.00
62150;BME280;48134;53.586;10.610;2022-09-17T08:09:44;99863.13;;;11.27;100.00
62150;BME280;48134;53.586;10.610;2022-09-17T08:12:17;99853.88;;;11.14;100.00
62150;BME280;48134;53.586;10.610;2022-09-17T08:14:50;99871.72;;;11.20;100.00
62150;BME280;48134;53.586;10.610;2022-09-17T08:17:23;99861.72;;;11.29;100.00
62150;BME280;48134;53.586;10.610;2022-09-17T08:19:50;99852.50;;;11.39;100.00
62150;BME280;48134;53.586;10.610;2022-09-17T08:22:26;99860.78;;;11.48;100.00
62150;BME280;48134;53.586;10.610;2022-09-17T08:24:59;99845.81;;;11.59;100.00
62150;BME280;48134;53.586;10.610;2022-09-17T08:27:35;99855.75;;;11.78;100.00
62150;BME280;48134;53.586;10.610;2022-09-17T08:30:09;99858.56;;;11.86;100.00
62150;BME280;48134;53.586;10.610;2022-09-17T08:32:37;99859.47;;;11.82;100.00
62150;BME280;48134;53.586;10.610;2022-09-17T08:35:05;99856.06;;;11.76;100.00
62150;BME280;48134;53.586;10.610;2022-09-17T08:37:34;99854.06;;;11.68;100.00
62150;BME280;48134;53.586;10.610;2022-09-17T08:40:03;99853.53;;;11.80;100.00
62150;BME280;48134;53.586;10.610;2022-09-17T08:42:38;99854.91;;;11.68;100.00
62150;BME280;48134;53.586;10.610;2022-09-17T08:45:09;99859.84;;;11.66;100.00
62150;BME280;48134;53.586;10.610;2022-09-17T08:47:40;99858.22;;;11.65;100.00
62150;BME280;48134;53.586;10.610;2022-09-17T08:50:11;99853.72;;;11.47;100.00
62150;BME280;48134;53.586;10.610;2022-09-17T08:52:51;99865.00;;;11.54;100.00
62150;BME280;48134;53.586;10.610;2022-09-17T08:55:29;99863.09;;;11.40;100.00
62150;BME280;48134;53.586;10.610;2022-09-17T08:58:04;99863.38;;;11.53;100.00
62150;BME280;48134;53.586;10.610;2022-09-17T09:00:40;99871.25;;;11.68;100.00
62150;BME280;48134;53.586;10.610;2022-09-17T09:03:20;99867.69;;;11.68;100.00
62150;BME280;48134;53.586;10.610;2022-09-17T09:05:51;99866.28;;;11.70;100.00
62150;BME280;48134;53.586;10.610;2022-09-17T09:08:24;99871.63;;;11.76;100.00
62150;BME280;48134;53.586;10.610;2022-09-17T09:10:54;99857.78;;;11.72;100.00
62150;BME280;48134;53.586;10.610;2022-09-17T09:13:28;99853.59;;;11.88;100.00
62150;BME280;48134;53.586;10.610;2022-09-17T09:16:04;99859.34;;;12.01;100.00
62150;BME280;48134;53.586;10.610;2022-09-17T09:18:38;99870.38;;;12.18;100.00
62150;BME280;48134;53.586;10.610;2022-09-17T09:21:13;99854.63;;;12.15;100.00
62150;BME280;48134;53.586;10.610;2022-09-17T09:23:46;99855.00;;;12.22;100.00
62150;BME280;48134;53.586;10.610;2022-09-17T09:26:23;99858.66;;;12.18;100.00
62150;BME280;48134;53.586;10.610;2022-09-17T09:29:01;99860.31;;;12.28;100.00
62150;BME280;48134;53.586;10.610;2022-09-17T09:31:38;99852.97;;;12.59;100.00
62150;BME280;48134;53.586;10.610;2022-09-17T09:34:14;99850.91;;;12.65;100.00
62150;BME280;48134;53.586;10.610;2022-09-17T09:36:47;99847.34;;;12.65;100.00
62150;BME280;48134;53.586;10.610;2022-09-17T09:39:22;99845.25;;;12.62;100.00
62150;BME280;48134;53.586;10.610;2022-09-17T09:41:57;99854.47;;;12.74;100.00
62150;BME280;48134;53.586;10.610;2022-09-17T09:44:27;99860.84;;;12.61;100.00
62150;BME280;48134;53.586;10.610;2022-09-17T09:47:02;99860.78;;;12.52;100.00
62150;BME280;48134;53.586;10.610;2022-09-17T09:49:41;99864.00;;;12.54;100.00
62150;BME280;48134;53.586;10.610;2022-09-17T09:52:22;99854.53;;;12.52;100.00
62150;BME280;48134;53.586;10.610;2022-09-17T09:54:57;99849.63;;;12.40;100.00
62150;BME280;48134;53.586;10.610;2022-09-17T09:57:34;99859.31;;;12.23;100.00
62150;BME280;48134;53.586;10.610;2022-09-17T10:00:17;99856.13;;;11.99;100.00
62150;BME280;48134;53.586;10.610;2022-09-17T10:02:48;99859.13;;;11.97;100.00
62150;BME280;48134;53.586;10.610;2022-09-17T10:05:20;99863.09;;;11.91;100.00
62150;BME280;48134;53.586;10.610;2022-09-17T10:07:48;99877.19;;;11.70;100.00
62150;BME280;48134;53.586;10.610;2022-09-17T10:10:22;99883.31;;;11.39;100.00
62150;BME280;48134;53.586;10.610;2022-09-17T10:13:04;99889.34;;;10.81;100.00
62150;BME280;48134;53.586;10.610;2022-09-17T10:15:40;99874.53;;;10.73;100.00
62150;BME280;48134;53.586;10.610;2022-09-17T10:18:16;99878.38;;;10.72;100.00
62150;BME280;48134;53.586;10.610;2022-09-17T10:20:54;99872.59;;;10.60;100.00
62150;BME280;48134;53.586;10.610;2022-09-17T10:23:28;99871.69;;;10.64;100.00
62150;BME280;48134;53.586;10.610;2022-09-17T10:26:03;99872.78;;;10.63;100.00
62150;BME280;48134;53.586;10.610;2022-09-17T10:28:32;99873.63;;;10.64;100.00
62150;BME280;48134;53.586;10.610;2022-09-17T10:31:02;99866.06;;;10.75;100.00
62150;BME280;48134;53.586;10.610;2022-09-17T10:33:32;99869.41;;;10.85;100.00
62150;BME280;48134;53.586;10.610;2022-09-17T10:36:03;99863.06;;;10.90;100.00
62150;BME280;48134;53.586;10.610;2022-09-17T10:38:38;99850.13;;;11.10;100.00
62150;BME280;48134;53.586;10.610;2022-09-17T10:41:14;99855.38;;;11.20;100.00
62150;BME280;48134;53.586;10.610;2022-09-17T10:43:42;99858.09;;;11.34;100.00
62150;BME280;48134;53.586;10.610;2022-09-17T10:46:16;99853.09;;;11.50;100.00
62150;BME280;48134;53.586;10.610;2022-09-17T10:48:48;99850.25;;;11.69;100.00
62150;BME280;48134;53.586;10.610;2022-09-17T10:51:24;99854.34;;;11.80;100.00
62150;BME280;48134;53.586;10.610;2022-09-17T10:54:05;99863.56;;;11.70;100.00
62150;BME280;48134;53.586;10.610;2022-09-17T10:56:37;99858.69;;;11.81;100.00
62150;BME280;48134;53.586;10.610;2022-09-17T10:59:17;99852.53;;;11.76;100.00
62150;BME280;48134;53.586;10.610;2022-09-17T11:01:57;99853.47;;;11.94;100.00
62150;BME280;48134;53.586;10.610;2022-09-17T11:04:28;99842.06;;;11.91;100.00
62150;BME280;48134;53.586;10.610;2022-09-17T11:07:21;99848.47;;;12.10;100.00
62150;BME280;48134;53.586;10.610;2022-09-17T11:10:02;99853.94;;;12.32;100.00
62150;BME280;48134;53.586;10.610;2022-09-17T11:12:36;99855.16;;;12.26;100.00
62150;BME280;48134;53.586;10.610;2022-09-17T11:15:10;99855.84;;;12.32;100.00
62150;BME280;48134;53.586;10.610;2022-09-17T11:17:56;99855.91;;;12.40;100.00
62150;BME280;48134;53.586;10.610;2022-09-17T11:20:42;99856.34;;;12.34;100.00
62150;BME280;48134;53.586;10.610;2022-09-17T11:23:19;99858.88;;;12.53;100.00
62150;BME280;48134;53.586;10.610;2022-09-17T11:25:55;99847.53;;;12.68;100.00
62150;BME280;48134;53.586;10.610;2022-09-17T11:28:35;99861.28;;;12.86;100.00
62150;BME280;48134;53.586;10.610;2022-09-17T11:31:09;99868.03;;;12.57;100.00
62150;BME280;48134;53.586;10.610;2022-09-17T11:33:56;99862.25;;;12.50;100.00
62150;BME280;48134;53.586;10.610;2022-09-17T11:36:36;99862.84;;;12.47;100.00
62150;BME280;48134;53.586;10.610;2022-09-17T11:39:12;99866.50;;;12.42;100.00
62150;BME280;48134;53.586;10.610;2022-09-17T11:41:47;99863.53;;;12.30;100.00
62150;BME280;48134;53.586;10.610;2022-09-17T11:44:24;99858.66;;;12.18;100.00
62150;BME280;48134;53.586;10.610;2022-09-17T11:46:59;99852.91;;;12.19;100.00
62150;BME280;48134;53.586;10.610;2022-09-17T11:49:36;99854.88;;;12.05;100.00
62150;BME280;48134;53.586;10.610;2022-09-17T11:52:06;99853.81;;;11.92;100.00
62150;BME280;48134;53.586;10.610;2022-09-17T11:54:42;99854.75;;;11.73;100.00
62150;BME280;48134;53.586;10.610;2022-09-17T11:57:15;99845.34;;;11.80;100.00
62150;BME280;48134;53.586;10.610;2022-09-17T11:59:50;99845.72;;;11.87;100.00
62150;BME280;48134;53.586;10.610;2022-09-17T12:02:27;99845.28;;;12.07;100.00
62150;BME280;48134;53.586;10.610;2022-09-17T12:04:59;99837.34;;;12.20;100.00
62150;BME280;48134;53.586;10.610;2022-09-17T12:07:34;99834.00;;;12.32;100.00
62150;BME280;48134;53.586;10.610;2022-09-17T12:12:55;99829.88;;;12.66;100.00
62150;BME280;48134;53.586;10.610;2022-09-17T12:15:26;99837.88;;;12.62;100.00
62150;BME280;48134;53.586;10.610;2022-09-17T12:18:02;99839.66;;;12.67;100.00
62150;BME280;48134;53.586;10.610;2022-09-17T12:20:39;99841.06;;;12.55;100.00
62150;BME280;48134;53.586;10.610;2022-09-17T12:23:09;99841.50;;;12.49;100.00
62150;BME280;48134;53.586;10.610;2022-09-17T12:25:45;99839.63;;;12.58;100.00
62150;BME280;48134;53.586;10.610;2022-09-17T12:28:24;99841.22;;;12.99;100.00
62150;BME280;48134;53.586;10.610;2022-09-17T12:30:59;99843.16;;;12.99;100.00
62150;BME280;48134;53.586;10.610;2022-09-17T12:33:29;99837.03;;;12.93;100.00
62150;BME280;48134;53.586;10.610;2022-09-17T12:36:09;99830.06;;;12.69;100.00
62150;BME280;48134;53.586;10.610;2022-09-17T12:38:47;99820.78;;;12.79;100.00
62150;BME280;48134;53.586;10.610;2022-09-17T12:41:25;99826.19;;;12.70;100.00
62150;BME280;48134;53.586;10.610;2022-09-17T12:44:05;99828.13;;;12.70;100.00
62150;BME280;48134;53.586;10.610;2022-09-17T12:46:48;99822.88;;;12.82;100.00
62150;BME280;48134;53.586;10.610;2022-09-17T12:49:31;99829.13;;;12.83;100.00
62150;BME280;48134;53.586;10.610;2022-09-17T12:52:10;99822.22;;;12.45;100.00
62150;BME280;48134;53.586;10.610;2022-09-17T12:54:52;99824.50;;;12.52;100.00
62150;BME280;48134;53.586;10.610;2022-09-17T12:57:28;99817.03;;;12.35;100.00
62150;BME280;48134;53.586;10.610;2022-09-17T12:59:59;99812.25;;;12.40;100.00
62150;BME280;48134;53.586;10.610;2022-09-17T13:02:37;99809.97;;;12.34;100.00
62150;BME280;48134;53.586;10.610;2022-09-17T13:05:20;99812.06;;;12.37;100.00
62150;BME280;48134;53.586;10.610;2022-09-17T13:08:02;99793.59;;;12.34;100.00
62150;BME280;48134;53.586;10.610;2022-09-17T13:10:39;99798.16;;;12.47;100.00
62150;BME280;48134;53.586;10.610;2022-09-17T13:13:10;99795.75;;;12.46;100.00
62150;BME280;48134;53.586;10.610;2022-09-17T13:15:45;99796.75;;;12.50;100.00
62150;BME280;48134;53.586;10.610;2022-09-17T13:18:19;99789.97;;;12.47;100.00